Time;durP1;ratioP1;P1;durP2;ratioP2;P2;SDS_P1;SDS_P2;PMS_P1;PMS_P2;Temp;Humidity;BMP_temperature;BMP_pressure;BME280_temperature;BME280_humidity;BME280_pressure;Samples;Min_cycle;Max_cycle;Signal;HPM_P1;HPM_P2
2022/03/03 00:01:54;;;;;;;391.85;169.20;;;-1.60;99.90;;;;;;5094670;28;20032;-54
2022/03/03 00:04:20;;;;;;;379.77;164.65;;;-1.60;99.90;;;;;;5094255;28;20154;-54
2022/03/03 00:06:46;;;;;;;406.40;174.60;;;-1.70;99.90;;;;;;5094219;28;20036;-54
2022/03/03 00:09:12;;;;;;;388.60;172.15;;;-1.70;99.90;;;;;;5094725;28;20055;-54
2022/03/03 00:11:38;;;;;;;385.67;176.23;;;-1.70;99.90;;;;;;5094637;28;20081;-54
2022/03/03 00:14:04;;;;;;;379.00;165.13;;;-1.70;99.90;;;;;;5094532;28;20390;-54
2022/03/03 00:16:30;;;;;;;406.08;180.05;;;-1.80;99.90;;;;;;5094650;28;20082;-54
2022/03/03 00:18:57;;;;;;;405.58;176.27;;;-1.80;99.90;;;;;;5094477;28;20060;-54
2022/03/03 00:21:23;;;;;;;388.08;166.50;;;-1.80;99.90;;;;;;5094452;28;20036;-54
2022/03/03 00:23:49;;;;;;;401.45;176.95;;;-1.80;99.90;;;;;;5094481;28;20031;-54
2022/03/03 00:26:14;;;;;;;426.85;183.05;;;-1.80;99.90;;;;;;5094432;28;20020;-54
2022/03/03 00:28:41;;;;;;;428.15;188.88;;;-1.80;99.90;;;;;;5094505;28;20102;-54
2022/03/03 00:31:07;;;;;;;411.70;179.88;;;-1.80;99.90;;;;;;5094496;28;20430;-54
2022/03/03 00:33:33;;;;;;;381.05;165.48;;;-1.90;99.90;;;;;;5094238;28;20026;-54
2022/03/03 00:35:59;;;;;;;348.10;151.38;;;-1.80;99.90;;;;;;5094474;28;20107;-54
2022/03/03 00:38:25;;;;;;;351.20;153.82;;;-1.90;99.90;;;;;;5094284;28;20078;-54
2022/03/03 00:40:51;;;;;;;343.13;146.95;;;-2.00;99.90;;;;;;5094273;28;20611;-54
2022/03/03 00:43:18;;;;;;;338.92;148.20;;;-2.10;99.90;;;;;;5094383;28;20042;-54
2022/03/03 00:45:44;;;;;;;347.63;149.07;;;-2.00;99.90;;;;;;5094582;28;20080;-54
2022/03/03 00:48:10;;;;;;;345.88;148.00;;;-2.10;99.90;;;;;;5094353;28;20052;-54
2022/03/03 00:50:36;;;;;;;338.45;148.18;;;-2.00;99.90;;;;;;5094249;28;20028;-54
2022/03/03 00:53:03;;;;;;;326.27;141.32;;;-2.00;99.90;;;;;;5094144;28;20064;-54
2022/03/03 00:55:29;;;;;;;318.35;139.40;;;-2.00;99.90;;;;;;5094172;28;20029;-54
2022/03/03 00:57:55;;;;;;;318.92;138.95;;;-2.00;99.90;;;;;;5094126;28;20036;-54
2022/03/03 01:00:21;;;;;;;318.88;137.68;;;-2.10;99.90;;;;;;5094136;28;20091;-54
2022/03/03 01:02:48;;;;;;;289.75;127.70;;;-2.10;99.90;;;;;;5093613;28;20119;-54
2022/03/03 01:05:15;;;;;;;363.33;158.07;;;-2.10;99.90;;;;;;5094048;28;20485;-54
2022/03/03 01:07:42;;;;;;;328.38;144.25;;;-2.00;99.90;;;;;;5093955;28;20478;-54
2022/03/03 01:10:09;;;;;;;385.45;167.73;;;-1.90;99.90;;;;;;5094095;28;20103;-54
2022/03/03 01:12:35;;;;;;;397.02;170.80;;;-1.90;99.90;;;;;;5093984;28;20470;-54
2022/03/03 01:15:07;;;;;;;410.65;176.48;;;-1.80;99.90;;;;;;5093916;28;20020;-54
2022/03/03 01:17:33;;;;;;;403.83;178.20;;;-1.90;99.90;;;;;;5096593;28;20097;-54
2022/03/03 01:19:59;;;;;;;378.80;167.98;;;-2.00;99.90;;;;;;5097820;28;20105;-54
2022/03/03 01:22:25;;;;;;;350.60;157.13;;;-1.90;99.90;;;;;;5097775;28;20038;-54
2022/03/03 01:24:51;;;;;;;335.77;145.93;;;-2.10;99.90;;;;;;5098072;28;20032;-54
2022/03/03 01:27:18;;;;;;;311.10;134.38;;;-2.00;99.90;;;;;;5097638;28;20432;-54
2022/03/03 01:29:44;;;;;;;353.65;146.43;;;-1.90;99.90;;;;;;5097496;28;20465;-54
2022/03/03 01:32:10;;;;;;;338.33;142.23;;;-2.00;99.90;;;;;;5097657;28;20121;-54
2022/03/03 01:34:37;;;;;;;332.92;144.95;;;-2.00;99.90;;;;;;5097424;28;20046;-54
2022/03/03 01:37:04;;;;;;;312.70;140.70;;;-2.10;99.90;;;;;;5097444;28;20032;-54
2022/03/03 01:39:30;;;;;;;307.67;134.30;;;-2.20;99.90;;;;;;5097294;28;20028;-54
2022/03/03 01:41:57;;;;;;;299.77;131.65;;;-2.20;99.90;;;;;;5097380;28;20032;-54
2022/03/03 01:44:24;;;;;;;321.67;138.80;;;-2.20;99.90;;;;;;5097570;28;20031;-54
2022/03/03 01:46:52;;;;;;;304.30;136.13;;;-2.30;99.90;;;;;;5097259;28;20130;-54
2022/03/03 01:49:18;;;;;;;312.95;134.38;;;-2.30;99.90;;;;;;5097123;28;20039;-54
2022/03/03 01:51:45;;;;;;;323.15;132.55;;;-2.40;99.90;;;;;;5097081;28;20035;-54
2022/03/03 01:54:12;;;;;;;346.50;133.48;;;-2.40;99.90;;;;;;5097225;28;20032;-54
2022/03/03 01:56:40;;;;;;;508.63;171.32;;;-2.40;99.90;;;;;;5097073;28;20038;-54
2022/03/03 01:59:06;;;;;;;495.33;166.55;;;-2.40;99.90;;;;;;5096974;28;20063;-54
2022/03/03 02:01:32;;;;;;;538.13;185.43;;;-2.40;99.90;;;;;;5096889;28;20393;-54
2022/03/03 02:03:59;;;;;;;553.92;192.85;;;-2.30;99.90;;;;;;5097130;28;20476;-54
2022/03/03 02:06:25;;;;;;;425.88;154.75;;;-2.20;99.90;;;;;;5096932;28;20095;-54
2022/03/03 02:08:54;;;;;;;365.48;146.35;;;-2.20;99.90;;;;;;5096875;28;20088;-54
2022/03/03 02:11:20;;;;;;;371.50;145.75;;;-2.30;99.90;;;;;;5096723;28;20024;-54
2022/03/03 02:13:47;;;;;;;425.20;183.70;;;-2.30;99.90;;;;;;5096789;28;20055;-54
2022/03/03 02:16:13;;;;;;;347.75;150.98;;;-2.30;99.90;;;;;;5096691;28;20076;-54
2022/03/03 02:18:40;;;;;;;362.90;154.50;;;-2.30;99.90;;;;;;5096870;28;20477;-54
2022/03/03 02:21:09;;;;;;;358.85;153.60;;;-2.20;99.90;;;;;;5096496;28;20038;-54
2022/03/03 02:23:35;;;;;;;367.48;154.30;;;-2.10;99.90;;;;;;5096610;28;20526;-54
2022/03/03 02:26:01;;;;;;;304.00;130.25;;;-2.20;99.90;;;;;;5096474;28;20020;-54
2022/03/03 02:28:27;;;;;;;273.60;124.25;;;-2.30;99.90;;;;;;5095762;28;20091;-54
2022/03/03 02:30:53;;;;;;;245.88;107.40;;;-2.30;99.90;;;;;;5096523;28;20113;-54
2022/03/03 02:33:19;;;;;;;222.15;99.93;;;-2.30;99.90;;;;;;5096382;28;20054;-54
2022/03/03 02:35:45;;;;;;;563.30;171.25;;;-2.30;99.90;;;;;;5096323;28;20464;-54
2022/03/03 02:38:11;;;;;;;511.95;157.55;;;-2.40;99.90;;;;;;5096559;28;20035;-54
2022/03/03 02:40:37;;;;;;;491.30;149.25;;;-2.50;99.90;;;;;;5096048;28;20032;-54
2022/03/03 02:43:03;;;;;;;561.75;170.35;;;-2.40;99.90;;;;;;5096188;28;20551;-54
2022/03/03 02:45:29;;;;;;;722.67;229.00;;;-2.40;99.90;;;;;;5096141;28;20032;-54
2022/03/03 02:47:54;;;;;;;577.38;177.00;;;-2.40;99.90;;;;;;5096193;28;20426;-54
2022/03/03 02:50:25;;;;;;;405.45;127.75;;;-2.50;99.90;;;;;;5095905;28;20539;-54
2022/03/03 02:52:51;;;;;;;216.27;95.10;;;-2.50;99.90;;;;;;5096094;28;20032;-54
2022/03/03 02:55:17;;;;;;;210.23;89.20;;;-2.60;99.90;;;;;;5095771;28;20028;-54
2022/03/03 02:57:55;;;;;;;209.07;91.85;;;-2.50;99.90;;;;;;5095823;28;20359;-55
2022/03/03 03:00:38;;;;;;;242.55;94.55;;;-2.50;99.90;;;;;;5095856;28;20072;-54
2022/03/03 03:03:04;;;;;;;296.92;106.53;;;-2.60;99.90;;;;;;5096078;28;20020;-54
2022/03/03 03:05:30;;;;;;;278.60;106.53;;;-2.50;99.90;;;;;;5095609;28;20052;-54
2022/03/03 03:07:57;;;;;;;279.40;108.13;;;-2.50;99.90;;;;;;5095726;28;20117;-54
2022/03/03 03:10:23;;;;;;;303.60;109.32;;;-2.30;99.90;;;;;;5095818;28;20084;-54
2022/03/03 03:12:49;;;;;;;274.13;105.70;;;-2.40;99.90;;;;;;5095590;28;20028;-54
2022/03/03 03:15:15;;;;;;;268.17;100.13;;;-2.40;99.90;;;;;;5095399;28;20629;-54
2022/03/03 03:17:42;;;;;;;198.38;85.65;;;-2.50;99.90;;;;;;5095586;28;20032;-54
2022/03/03 03:20:08;;;;;;;186.95;81.97;;;-2.50;99.90;;;;;;5095382;28;20043;-54
2022/03/03 03:22:35;;;;;;;193.05;83.57;;;-2.60;99.90;;;;;;5095620;28;20101;-54
2022/03/03 03:25:02;;;;;;;200.20;85.65;;;-2.60;99.90;;;;;;5095532;28;20024;-54
2022/03/03 03:27:29;;;;;;;197.55;83.53;;;-2.50;99.90;;;;;;5095247;28;20031;-54
2022/03/03 03:29:55;;;;;;;243.13;98.22;;;-2.50;99.90;;;;;;5095330;28;20374;-54
2022/03/03 03:32:21;;;;;;;343.80;133.15;;;-2.60;99.90;;;;;;5095335;28;20477;-54
2022/03/03 03:34:47;;;;;;;340.83;125.95;;;-2.60;99.90;;;;;;5095124;28;20027;-54
2022/03/03 03:37:13;;;;;;;280.27;110.10;;;-2.50;99.90;;;;;;5095300;28;20174;-54
2022/03/03 03:39:39;;;;;;;214.32;88.03;;;-2.40;99.90;;;;;;5094983;28;20539;-54
2022/03/03 03:42:06;;;;;;;195.80;87.28;;;-2.50;99.90;;;;;;5095047;28;20032;-54
2022/03/03 03:44:32;;;;;;;166.80;75.88;;;-2.60;99.90;;;;;;5095080;28;20028;-54
2022/03/03 03:46:58;;;;;;;157.27;73.57;;;-2.50;99.90;;;;;;5095033;28;20020;-54
2022/03/03 03:49:24;;;;;;;164.85;73.70;;;-2.60;99.90;;;;;;5095063;28;20027;-54
2022/03/03 03:51:50;;;;;;;162.35;73.85;;;-2.50;99.90;;;;;;5094718;28;20427;-54
2022/03/03 03:54:16;;;;;;;207.77;89.10;;;-2.50;99.90;;;;;;5094938;28;20036;-54
2022/03/03 03:56:42;;;;;;;188.02;84.88;;;-2.50;99.90;;;;;;5095064;28;20066;-54
2022/03/03 03:59:08;;;;;;;235.10;103.70;;;-2.50;99.90;;;;;;5094725;28;20083;-54
2022/03/03 04:01:34;;;;;;;251.98;111.28;;;-2.50;99.90;;;;;;5094680;28;20032;-54
2022/03/03 04:04:00;;;;;;;255.00;113.88;;;-2.50;99.90;;;;;;5094650;28;20028;-54
2022/03/03 04:06:26;;;;;;;252.10;107.88;;;-2.40;99.90;;;;;;5094813;28;20058;-54
2022/03/03 04:08:52;;;;;;;216.52;96.63;;;-2.50;99.90;;;;;;5094867;28;20028;-54
2022/03/03 04:11:18;;;;;;;210.52;92.85;;;-2.50;99.90;;;;;;5094789;28;20516;-54
2022/03/03 04:13:44;;;;;;;205.18;89.90;;;-2.50;99.90;;;;;;5076559;28;20030;-54
2022/03/03 04:16:10;;;;;;;176.45;75.82;;;-2.60;99.90;;;;;;5094708;28;20441;-54
2022/03/03 04:18:36;;;;;;;174.95;76.28;;;-2.70;99.90;;;;;;5094521;28;20493;-54
2022/03/03 04:21:03;;;;;;;211.15;91.38;;;-2.60;99.90;;;;;;5094442;28;20439;-54
2022/03/03 04:23:29;;;;;;;408.58;164.43;;;-2.70;99.90;;;;;;5094449;28;20103;-54
2022/03/03 04:25:55;;;;;;;447.58;175.65;;;-2.70;99.90;;;;;;5094544;28;20198;-54
2022/03/03 04:28:21;;;;;;;482.52;186.90;;;-2.70;99.90;;;;;;5094548;28;20016;-54
2022/03/03 04:30:48;;;;;;;432.58;171.65;;;-2.70;99.90;;;;;;5094627;28;20093;-54
2022/03/03 04:33:15;;;;;;;327.85;132.30;;;-2.60;99.90;;;;;;5094309;28;20122;-54
2022/03/03 04:35:41;;;;;;;285.25;117.78;;;-2.60;99.90;;;;;;5094317;28;20036;-54
2022/03/03 04:38:07;;;;;;;314.13;133.40;;;-2.60;99.90;;;;;;5094218;28;20381;-54
2022/03/03 04:40:33;;;;;;;429.13;171.05;;;-2.60;99.90;;;;;;5094231;28;20057;-54
2022/03/03 04:42:59;;;;;;;459.55;181.32;;;-2.60;99.90;;;;;;5094291;28;20440;-54
2022/03/03 04:45:25;;;;;;;396.40;157.70;;;-2.70;99.90;;;;;;5094324;28;20103;-54
2022/03/03 04:47:51;;;;;;;351.73;141.27;;;-2.60;99.90;;;;;;5094668;28;20073;-54
2022/03/03 04:50:17;;;;;;;401.42;159.90;;;-2.60;99.90;;;;;;5094236;28;20550;-54
2022/03/03 04:52:44;;;;;;;437.02;166.95;;;-2.50;99.90;;;;;;5097346;28;20405;-54
2022/03/03 04:55:10;;;;;;;381.02;148.20;;;-2.60;99.90;;;;;;5098224;28;20030;-54
2022/03/03 04:57:36;;;;;;;276.05;111.25;;;-2.60;99.90;;;;;;5098216;28;20099;-54
2022/03/03 05:00:05;;;;;;;265.77;108.13;;;-2.70;99.90;;;;;;5097906;28;20067;-54
2022/03/03 05:02:31;;;;;;;272.52;109.82;;;-2.70;99.90;;;;;;5098094;28;20047;-54
2022/03/03 05:04:57;;;;;;;225.05;93.45;;;-2.90;99.90;;;;;;5098145;28;20537;-54
2022/03/03 05:07:23;;;;;;;365.25;139.93;;;-2.90;99.90;;;;;;5097990;28;20028;-54
2022/03/03 05:09:49;;;;;;;263.73;107.50;;;-3.00;99.90;;;;;;5097947;28;20423;-54
2022/03/03 05:12:14;;;;;;;231.82;94.55;;;-3.10;99.90;;;;;;5098013;28;20109;-54
2022/03/03 05:14:40;;;;;;;240.73;96.47;;;-3.00;99.90;;;;;;5097793;28;20032;-54
2022/03/03 05:17:06;;;;;;;230.73;94.60;;;-3.10;99.90;;;;;;5097845;28;20485;-54
2022/03/03 05:19:32;;;;;;;238.95;97.93;;;-3.10;99.90;;;;;;5097722;28;20031;-54
2022/03/03 05:21:58;;;;;;;255.52;108.82;;;-3.10;99.90;;;;;;5097644;28;20028;-54
2022/03/03 05:24:24;;;;;;;250.32;106.18;;;-3.00;99.90;;;;;;5097961;28;20114;-54
2022/03/03 05:26:50;;;;;;;250.15;105.22;;;-3.00;99.90;;;;;;5097566;28;20051;-54
2022/03/03 05:29:16;;;;;;;277.27;109.72;;;-3.10;99.90;;;;;;5097509;28;20039;-54
2022/03/03 05:31:43;;;;;;;268.42;111.15;;;-3.10;99.90;;;;;;5097502;28;20079;-54
2022/03/03 05:34:09;;;;;;;258.45;105.30;;;-3.00;99.90;;;;;;5097396;28;20059;-54
2022/03/03 05:36:41;;;;;;;260.30;108.50;;;-3.00;99.90;;;;;;5097694;28;20059;-54
2022/03/03 05:39:07;;;;;;;272.88;109.53;;;-3.10;99.90;;;;;;5097342;28;20093;-54
2022/03/03 05:41:36;;;;;;;254.73;105.93;;;-3.00;99.90;;;;;;5097225;28;20486;-54
2022/03/03 05:44:04;;;;;;;225.80;92.63;;;-3.10;99.90;;;;;;5097474;28;20031;-54
2022/03/03 05:46:31;;;;;;;222.52;89.60;;;-3.00;99.90;;;;;;5097142;28;20032;-54
2022/03/03 05:48:57;;;;;;;200.82;86.57;;;-2.80;99.90;;;;;;5097110;28;20020;-54
2022/03/03 05:51:23;;;;;;;208.10;88.70;;;-2.60;99.90;;;;;;5097140;28;20039;-54
2022/03/03 05:53:49;;;;;;;210.52;90.43;;;-2.20;99.90;;;;;;5097012;28;20035;-54
2022/03/03 05:56:17;;;;;;;204.93;87.20;;;-1.90;99.90;;;;;;5097037;28;20024;-54
2022/03/03 05:58:49;;;;;;;223.98;94.80;;;-1.60;99.90;;;;;;5096901;28;20051;-54
2022/03/03 06:01:16;;;;;;;204.05;89.55;;;-1.30;99.90;;;;;;5096829;28;20032;-54
2022/03/03 06:03:47;;;;;;;209.20;87.50;;;-1.00;99.90;;;;;;5095958;28;20062;-54
2022/03/03 06:06:16;;;;;;;199.43;87.07;;;-0.60;99.90;;;;;;5097374;28;20035;-54
2022/03/03 06:09:15;;;;;;;227.93;91.05;;;-0.20;99.90;;;;;;5097741;28;20028;-54
2022/03/03 06:12:06;;;;;;;415.58;143.18;;;-0.60;99.90;;;;;;5097599;28;20036;-54
2022/03/03 06:14:40;;;;;;;537.67;200.13;;;-0.30;99.90;;;;;;5095709;28;20054;-54
2022/03/03 06:17:06;;;;;;;586.95;234.63;;;-0.30;99.90;;;;;;5079478;28;20481;-54
2022/03/03 06:19:41;;;;;;;440.85;167.30;;;-0.40;99.90;;;;;;5088448;28;20034;-54
2022/03/03 06:22:08;;;;;;;326.60;131.52;;;-0.40;99.90;;;;;;5085220;28;20020;-54
2022/03/03 06:24:35;;;;;;;324.73;134.02;;;-0.50;99.90;;;;;;5087169;28;20105;-54
2022/03/03 06:27:02;;;;;;;294.58;120.43;;;-0.50;99.90;;;;;;5083033;28;20093;-55
2022/03/03 06:29:28;;;;;;;278.45;121.15;;;-0.40;99.90;;;;;;5083028;28;20032;-55
2022/03/03 06:31:54;;;;;;;289.10;125.18;;;-0.30;99.90;;;;;;5085561;28;20343;-55
2022/03/03 07:24:59;;;;;;;311.60;143.48;;;3.80;99.90;;;;;;5053954;28;20718;-55
2022/03/03 07:27:26;;;;;;;316.63;133.43;;;4.40;99.90;;;;;;5067139;28;20373;-55
2022/03/03 07:30:01;;;;;;;282.85;126.25;;;4.70;99.90;;;;;;5091977;28;20020;-55
2022/03/03 07:33:05;;;;;;;265.73;118.28;;;4.80;99.90;;;;;;5075713;28;20111;-55
2022/03/03 07:35:34;;;;;;;252.93;112.57;;;5.30;99.90;;;;;;5063335;28;20036;-55
2022/03/03 07:38:09;;;;;;;228.57;104.45;;;5.80;99.90;;;;;;5066273;28;20433;-55
2022/03/03 07:40:37;;;;;;;193.60;88.75;;;5.80;99.90;;;;;;5072672;28;20071;-55
2022/03/03 07:43:03;;;;;;;215.60;96.55;;;6.00;99.90;;;;;;5057772;28;20029;-55
2022/03/03 07:45:29;;;;;;;181.43;82.10;;;6.20;99.90;;;;;;5070589;28;20032;-55
2022/03/03 07:47:56;;;;;;;193.93;92.68;;;6.20;99.10;;;;;;5074614;28;20029;-55
2022/03/03 07:50:24;;;;;;;221.30;95.40;;;6.30;99.50;;;;;;5066725;28;20048;-55
2022/03/03 07:52:50;;;;;;;232.77;110.85;;;6.60;98.60;;;;;;5064947;28;20166;-55
2022/03/03 07:55:16;;;;;;;226.80;107.80;;;6.80;98.40;;;;;;5070407;28;20021;-55
2022/03/03 07:58:03;;;;;;;202.55;97.43;;;6.90;98.90;;;;;;5074471;28;20021;-55
2022/03/03 08:00:31;;;;;;;205.68;97.28;;;7.50;97.80;;;;;;5055834;28;20037;-55
2022/03/03 08:03:04;;;;;;;195.90;94.18;;;7.60;97.50;;;;;;5067798;28;20395;-55
2022/03/03 08:05:31;;;;;;;190.38;95.70;;;8.30;96.20;;;;;;5082270;28;20020;-55
2022/03/03 08:08:00;;;;;;;185.65;89.05;;;8.50;94.60;;;;;;5057906;28;20107;-55
2022/03/03 08:10:28;;;;;;;186.73;90.60;;;8.60;94.10;;;;;;5061960;28;20051;-55
2022/03/03 08:12:56;;;;;;;195.65;87.00;;;8.20;93.80;;;;;;5065558;28;20060;-55
2022/03/03 08:15:22;;;;;;;169.85;85.75;;;8.50;92.40;;;;;;5070215;28;20048;-54
2022/03/03 08:17:53;;;;;;;164.68;81.03;;;8.80;94.10;;;;;;5066111;28;20029;-54
2022/03/03 08:20:20;;;;;;;144.90;73.25;;;9.40;89.40;;;;;;5072314;28;20378;-54
2022/03/03 08:22:47;;;;;;;134.18;67.10;;;9.40;87.70;;;;;;5053945;28;20067;-54
2022/03/03 08:25:14;;;;;;;137.38;63.17;;;9.40;88.90;;;;;;5061679;28;20046;-54
2022/03/03 08:27:40;;;;;;;122.20;64.97;;;10.00;84.00;;;;;;5070648;28;20074;-54
2022/03/03 08:30:09;;;;;;;117.05;63.22;;;9.70;87.10;;;;;;5070470;28;20055;-54
2022/03/03 08:32:38;;;;;;;131.25;64.57;;;10.20;85.80;;;;;;5067129;28;20029;-54
2022/03/03 08:35:15;;;;;;;121.93;64.60;;;10.80;78.80;;;;;;5053567;28;20049;-54
2022/03/03 08:37:53;;;;;;;115.45;58.22;;;10.60;76.50;;;;;;5080149;28;20059;-54
2022/03/03 08:40:22;;;;;;;112.85;51.35;;;11.00;80.30;;;;;;5045130;28;20463;-54
2022/03/03 08:42:56;;;;;;;90.57;42.10;;;10.90;70.30;;;;;;5054035;28;20029;-54
2022/03/03 08:45:29;;;;;;;73.45;37.58;;;11.00;60.10;;;;;;5068803;28;20029;-54
2022/03/03 08:47:57;;;;;;;74.82;37.38;;;11.10;54.70;;;;;;5053616;28;20384;-54
2022/03/03 08:50:27;;;;;;;69.57;36.88;;;11.10;55.00;;;;;;5058291;28;20444;-54
2022/03/03 08:52:56;;;;;;;83.95;39.70;;;10.60;58.50;;;;;;5094049;28;20024;-54
2022/03/03 08:55:24;;;;;;;81.57;42.88;;;10.80;58.80;;;;;;5094215;28;20043;-54
2022/03/03 08:57:51;;;;;;;72.97;39.42;;;10.80;71.20;;;;;;5094110;28;20354;-54
2022/03/03 09:00:17;;;;;;;81.95;45.92;;;11.00;58.40;;;;;;5070761;28;20082;-54
2022/03/03 09:02:43;;;;;;;88.45;45.50;;;11.20;57.40;;;;;;5071103;28;20025;-54
2022/03/03 09:05:11;;;;;;;82.13;44.50;;;11.10;61.80;;;;;;5063564;28;20036;-54
2022/03/03 09:07:42;;;;;;;89.60;43.00;;;11.50;60.00;;;;;;5065471;28;20029;-54
2022/03/03 09:10:09;;;;;;;77.00;36.65;;;11.60;54.80;;;;;;5067657;28;20115;-54
2022/03/03 09:12:36;;;;;;;64.25;37.45;;;12.10;49.20;;;;;;5051303;28;20037;-54
2022/03/03 09:15:03;;;;;;;72.57;37.80;;;12.30;48.90;;;;;;5072378;28;20031;-54
2022/03/03 09:17:30;;;;;;;83.40;40.22;;;12.80;52.00;;;;;;5068863;28;20437;-55
2022/03/03 09:19:56;;;;;;;82.28;42.78;;;13.30;47.50;;;;;;5052267;28;20044;-54
2022/03/03 09:22:22;;;;;;;88.15;42.78;;;14.00;45.80;;;;;;5073746;28;20056;-54
2022/03/03 09:24:48;;;;;;;80.00;40.88;;;14.00;44.50;;;;;;5064712;28;20177;-54
2022/03/03 09:27:14;;;;;;;75.45;42.00;;;14.10;41.20;;;;;;5066106;28;20432;-55
2022/03/03 09:29:40;;;;;;;79.35;42.35;;;13.70;40.70;;;;;;5068667;28;20112;-55
2022/03/03 09:32:07;;;;;;;73.57;40.70;;;14.20;41.30;;;;;;5072907;28;20098;-55
2022/03/03 09:34:33;;;;;;;77.68;40.55;;;14.30;39.60;;;;;;5068850;28;20484;-55
2022/03/03 09:36:59;;;;;;;75.43;39.90;;;13.40;38.60;;;;;;5062365;28;20021;-54
2022/03/03 09:39:25;;;;;;;61.75;32.92;;;12.60;41.30;;;;;;5069947;28;20054;-54
2022/03/03 09:41:52;;;;;;;51.53;29.98;;;13.10;40.40;;;;;;5063694;28;20040;-54
2022/03/03 09:44:22;;;;;;;44.03;27.23;;;13.20;39.00;;;;;;5060131;28;20029;-54
2022/03/03 09:46:48;;;;;;;53.40;28.55;;;14.10;38.60;;;;;;5072864;28;20029;-54
2022/03/03 09:49:15;;;;;;;46.25;27.67;;;13.40;37.90;;;;;;5060714;28;20024;-55
2022/03/03 09:51:42;;;;;;;46.92;27.27;;;12.90;38.30;;;;;;5070170;28;20025;-54
2022/03/03 09:54:08;;;;;;;48.47;28.15;;;13.10;37.90;;;;;;5062818;28;20074;-54
2022/03/03 09:56:34;;;;;;;52.65;25.60;;;12.90;38.40;;;;;;5064338;28;20108;-54
2022/03/03 09:59:00;;;;;;;45.00;27.60;;;12.60;39.20;;;;;;5067615;28;20036;-54
2022/03/03 10:01:30;;;;;;;57.97;29.52;;;12.70;38.80;;;;;;5068458;28;20033;-54
2022/03/03 10:04:16;;;;;;;57.20;31.08;;;12.40;40.10;;;;;;5063688;28;20029;-54
2022/03/03 10:06:45;;;;;;;50.35;28.25;;;13.00;40.50;;;;;;5075125;28;20024;-54
2022/03/03 10:09:12;;;;;;;54.92;28.23;;;12.80;38.40;;;;;;5063179;28;20072;-54
2022/03/03 10:12:03;;;;;;;61.90;33.17;;;13.10;40.10;;;;;;5062565;28;20033;-54
2022/03/03 10:14:35;;;;;;;67.13;36.53;;;13.10;39.70;;;;;;5053789;28;20517;-54
2022/03/03 10:17:05;;;;;;;60.47;35.33;;;12.80;38.20;;;;;;5075489;28;20099;-54
2022/03/03 10:19:32;;;;;;;51.25;29.73;;;13.00;39.10;;;;;;5071150;28;20087;-54
2022/03/03 10:21:59;;;;;;;48.83;28.80;;;13.00;38.60;;;;;;5072197;28;20482;-54
2022/03/03 10:24:29;;;;;;;54.08;28.70;;;12.70;37.40;;;;;;5059982;28;20441;-54
2022/03/03 10:27:07;;;;;;;46.55;29.38;;;12.30;37.90;;;;;;5072306;28;20039;-54
2022/03/03 10:29:34;;;;;;;46.13;25.92;;;12.60;38.60;;;;;;5071799;28;20478;-54
2022/03/03 10:32:02;;;;;;;46.65;23.13;;;13.00;38.40;;;;;;5067014;28;20436;-54
2022/03/03 10:34:32;;;;;;;36.28;20.02;;;12.60;36.60;;;;;;5073892;28;20037;-54
2022/03/03 10:37:07;;;;;;;31.13;19.58;;;13.00;35.40;;;;;;5068481;28;20025;-54
2022/03/03 10:39:48;;;;;;;50.78;29.70;;;12.50;35.10;;;;;;5064348;28;20067;-54
2022/03/03 10:42:20;;;;;;;51.20;26.75;;;12.40;35.50;;;;;;5071598;28;20064;-54
2022/03/03 10:44:50;;;;;;;63.50;29.15;;;12.90;35.80;;;;;;5071267;28;20398;-54
2022/03/03 10:47:26;;;;;;;49.83;24.98;;;11.80;36.90;;;;;;5065368;28;20029;-54
2022/03/03 10:49:54;;;;;;;35.45;22.10;;;12.00;36.70;;;;;;5063207;28;20027;-54
2022/03/03 10:52:23;;;;;;;41.50;20.80;;;13.70;36.90;;;;;;5066567;28;20036;-54
2022/03/03 10:55:07;;;;;;;38.55;20.85;;;13.90;34.40;;;;;;5069601;28;20019;-54
2022/03/03 10:57:49;;;;;;;45.55;22.70;;;13.20;32.20;;;;;;5065050;28;20024;-54
2022/03/03 11:00:19;;;;;;;35.72;19.00;;;13.10;32.60;;;;;;5088215;28;20055;-54
2022/03/03 11:02:48;;;;;;;41.35;23.35;;;12.90;32.80;;;;;;5077439;28;20075;-54
2022/03/03 11:05:17;;;;;;;28.15;16.92;;;12.80;34.10;;;;;;5061179;28;20079;-54
2022/03/03 11:07:45;;;;;;;29.98;15.45;;;12.50;32.70;;;;;;5057370;28;20033;-54
2022/03/03 11:10:14;;;;;;;37.75;18.30;;;11.90;32.30;;;;;;5074693;28;20036;-54
2022/03/03 11:12:43;;;;;;;32.33;16.98;;;11.80;33.50;;;;;;5074719;28;20081;-54
2022/03/03 11:15:09;;;;;;;27.55;16.83;;;13.00;33.60;;;;;;5074562;28;20028;-54
2022/03/03 11:17:36;;;;;;;30.30;17.20;;;12.90;31.70;;;;;;5086500;28;20501;-54
2022/03/03 11:20:05;;;;;;;29.70;14.10;;;12.60;31.40;;;;;;5094007;28;20074;-54
2022/03/03 11:22:31;;;;;;;28.75;16.90;;;11.80;31.10;;;;;;5075472;28;20039;-54
2022/03/03 11:25:00;;;;;;;29.75;16.95;;;12.00;32.50;;;;;;5071358;28;20045;-54
2022/03/03 11:27:45;;;;;;;36.90;19.45;;;12.40;33.00;;;;;;5067150;28;20032;-54
2022/03/03 11:30:18;;;;;;;27.45;17.08;;;13.30;32.30;;;;;;5070289;28;20027;-54
2022/03/03 11:32:45;;;;;;;33.33;17.15;;;13.00;31.20;;;;;;5066731;28;20074;-54
2022/03/03 11:35:14;;;;;;;36.78;18.00;;;13.00;31.60;;;;;;5068392;28;20059;-54
2022/03/03 11:37:47;;;;;;;34.60;18.63;;;12.70;32.70;;;;;;5067463;28;20028;-54
2022/03/03 11:40:17;;;;;;;39.83;18.55;;;12.50;31.80;;;;;;5068291;28;20040;-54
2022/03/03 11:42:53;;;;;;;32.97;18.05;;;13.40;32.10;;;;;;5054316;28;20088;-54
2022/03/03 11:45:30;;;;;;;26.77;17.05;;;14.30;30.70;;;;;;5058099;28;20068;-54
2022/03/03 11:48:23;;;;;;;26.13;17.45;;;13.60;31.90;;;;;;5057037;28;20025;-54
2022/03/03 11:50:52;;;;;;;29.20;19.05;;;13.10;31.00;;;;;;5051890;28;20037;-54
2022/03/03 11:53:22;;;;;;;32.03;19.15;;;13.30;32.00;;;;;;5076307;28;20111;-54
2022/03/03 11:55:57;;;;;;;36.95;18.83;;;13.90;31.80;;;;;;5092666;28;20028;-54
2022/03/03 11:58:32;;;;;;;33.20;17.05;;;14.50;30.20;;;;;;5081757;28;20040;-54
2022/03/03 12:00:59;;;;;;;43.58;19.73;;;15.40;29.60;;;;;;5066525;28;20032;-55
2022/03/03 12:03:26;;;;;;;43.47;20.27;;;15.40;29.40;;;;;;5072690;28;20059;-54
2022/03/03 12:06:08;;;;;;;29.05;17.65;;;14.50;29.00;;;;;;5075551;28;20111;-55
2022/03/03 12:08:36;;;;;;;29.75;17.40;;;13.80;29.40;;;;;;5054121;28;20470;-54
2022/03/03 12:11:06;;;;;;;37.70;20.38;;;14.30;30.10;;;;;;5053911;28;20037;-55
2022/03/03 12:13:38;;;;;;;31.25;17.98;;;15.30;29.80;;;;;;5066713;28;20109;-55
2022/03/03 12:16:35;;;;;;;31.60;18.17;;;15.60;28.70;;;;;;5074215;28;20031;-54
2022/03/03 12:19:02;;;;;;;27.58;17.30;;;15.00;28.20;;;;;;5067004;28;20128;-55
2022/03/03 12:21:41;;;;;;;39.85;18.60;;;15.20;28.30;;;;;;5059108;28;20504;-55
2022/03/03 12:24:13;;;;;;;23.25;15.70;;;15.00;27.50;;;;;;5067627;28;20398;-54
2022/03/03 12:27:04;;;;;;;27.63;16.00;;;14.60;26.80;;;;;;5064382;28;20460;-54
2022/03/03 12:29:39;;;;;;;26.65;16.17;;;14.70;26.90;;;;;;5060504;28;20021;-55
2022/03/03 12:32:30;;;;;;;33.03;21.08;;;15.00;27.30;;;;;;5051976;28;20360;-54
2022/03/03 12:35:02;;;;;;;33.97;17.63;;;15.90;27.80;;;;;;5062035;28;20052;-55
2022/03/03 12:37:29;;;;;;;27.58;16.67;;;15.80;27.60;;;;;;5056609;28;20021;-55
2022/03/03 12:39:57;;;;;;;28.52;17.23;;;15.50;26.10;;;;;;5056096;28;20166;-55
2022/03/03 12:42:27;;;;;;;35.13;18.38;;;15.90;26.40;;;;;;5064403;28;20035;-55
2022/03/03 12:44:58;;;;;;;40.15;18.10;;;16.20;26.90;;;;;;5072224;28;20028;-55
2022/03/03 12:55:13;;;;;;;28.40;16.63;;;16.00;26.30;;;;;;5072355;28;20533;-55
2022/03/03 12:57:39;;;;;;;29.52;16.55;;;16.50;27.20;;;;;;5061033;28;20041;-55
2022/03/03 13:00:11;;;;;;;32.50;16.85;;;16.80;26.10;;;;;;5053083;28;20553;-55
2022/03/03 13:03:12;;;;;;;23.65;16.80;;;16.00;26.00;;;;;;5052919;28;20055;-55
2022/03/03 13:05:49;;;;;;;27.73;17.27;;;15.40;26.50;;;;;;5030298;28;20119;-55
2022/03/03 13:08:27;;;;;;;25.77;17.25;;;16.00;26.90;;;;;;5072164;28;20036;-55
2022/03/03 13:10:55;;;;;;;29.95;16.92;;;16.10;26.80;;;;;;5071936;28;20119;-55
2022/03/03 13:13:21;;;;;;;28.33;18.55;;;16.00;26.80;;;;;;5078419;28;20032;-55
2022/03/03 13:15:47;;;;;;;34.45;17.00;;;16.20;27.10;;;;;;5086575;28;20046;-55
2022/03/03 13:18:18;;;;;;;30.45;17.48;;;16.20;26.80;;;;;;5059511;28;20056;-55
2022/03/03 13:20:56;;;;;;;31.23;18.25;;;16.40;27.20;;;;;;5073423;28;20036;-55
2022/03/03 13:23:26;;;;;;;29.83;17.33;;;16.80;27.10;;;;;;5064565;28;20055;-55
2022/03/03 13:26:13;;;;;;;27.88;16.05;;;16.30;26.50;;;;;;5071073;28;20075;-55